Campobello, South Carolina
Current Conditions -  °F | °C
As of 4:53 AM on Sunday 23 Nov 2014 (Local Time) from KGSP Reporting Station
Light Rain Light Rain  
Wind Chill: 39°   Ceiling: 1700
Heat Index: 43°   Visibility: 7mi
Dew Point: 37°   Wind: 7mph
Humidity: 80%   Direction: 10°N
Pressure: 30.21"   Gusts: NA
Location:  35.12°N, 82.15°W
Report Text: KGSP 230953Z AUTO 01006KT 7SM -RA OVC017 06/03 A3021 RMK AO2 RAB0856 SLP230 P0005 T00610028
Loading
Personal Weather Stations






























Interactive Weather Map New forecast layout! Learn more

10-Day Weather Forecast

Advertisements
Track Severe Weather on mobile